sensor_id;sensor_type;location;lat;lon;timestamp;pressure;altitude;pressure_sealevel;temperature;humidity
24154;BME280;12312;53.362;-1.518;2023-02-03T00:00:26;99926.31;;;8.66;100.00
24154;BME280;12312;53.362;-1.518;2023-02-03T00:02:53;99918.66;;;8.44;100.00
24154;BME280;12312;53.362;-1.518;2023-02-03T00:05:19;99916.28;;;8.55;100.00
24154;BME280;12312;53.362;-1.518;2023-02-03T00:07:45;99924.13;;;8.41;100.00
24154;BME280;12312;53.362;-1.518;2023-02-03T00:10:11;99924.59;;;8.32;100.00
24154;BME280;12312;53.362;-1.518;2023-02-03T00:12:37;99900.75;;;8.32;100.00
24154;BME280;12312;53.362;-1.518;2023-02-03T00:15:03;99909.13;;;8.40;100.00
24154;BME280;12312;53.362;-1.518;2023-02-03T00:17:28;99902.91;;;8.41;100.00
24154;BME280;12312;53.362;-1.518;2023-02-03T00:19:54;99920.84;;;8.36;100.00
24154;BME280;12312;53.362;-1.518;2023-02-03T00:22:19;99922.72;;;8.34;100.00
24154;BME280;12312;53.362;-1.518;2023-02-03T00:24:47;99922.84;;;8.48;100.00
24154;BME280;12312;53.362;-1.518;2023-02-03T00:27:13;99901.81;;;8.45;100.00
24154;BME280;12312;53.362;-1.518;2023-02-03T00:29:39;99911.13;;;8.52;100.00
24154;BME280;12312;53.362;-1.518;2023-02-03T00:32:05;99886.84;;;8.60;100.00
24154;BME280;12312;53.362;-1.518;2023-02-03T00:34:30;99898.50;;;8.57;100.00
24154;BME280;12312;53.362;-1.518;2023-02-03T00:36:56;99898.69;;;8.70;100.00
24154;BME280;12312;53.362;-1.518;2023-02-03T00:39:22;99900.28;;;8.57;100.00
24154;BME280;12312;53.362;-1.518;2023-02-03T00:41:48;99914.91;;;8.48;100.00
24154;BME280;12312;53.362;-1.518;2023-02-03T00:44:14;99923.88;;;8.46;100.00
24154;BME280;12312;53.362;-1.518;2023-02-03T00:46:39;99920.81;;;8.53;100.00
24154;BME280;12312;53.362;-1.518;2023-02-03T00:49:05;99923.81;;;8.47;100.00
24154;BME280;12312;53.362;-1.518;2023-02-03T00:51:32;99918.28;;;8.35;100.00
24154;BME280;12312;53.362;-1.518;2023-02-03T00:53:58;99923.59;;;8.35;100.00
24154;BME280;12312;53.362;-1.518;2023-02-03T00:56:24;99920.47;;;8.27;100.00
24154;BME280;12312;53.362;-1.518;2023-02-03T00:58:49;99923.03;;;8.28;100.00
24154;BME280;12312;53.362;-1.518;2023-02-03T01:01:15;99920.38;;;8.28;100.00
24154;BME280;12312;53.362;-1.518;2023-02-03T01:03:40;99943.56;;;8.25;100.00
24154;BME280;12312;53.362;-1.518;2023-02-03T01:06:18;99927.06;;;8.18;100.00
24154;BME280;12312;53.362;-1.518;2023-02-03T01:08:44;99930.56;;;8.19;100.00
24154;BME280;12312;53.362;-1.518;2023-02-03T01:11:30;99919.78;;;8.23;100.00
24154;BME280;12312;53.362;-1.518;2023-02-03T01:13:56;99918.56;;;8.12;100.00
24154;BME280;12312;53.362;-1.518;2023-02-03T01:16:25;99918.50;;;8.13;100.00
24154;BME280;12312;53.362;-1.518;2023-02-03T01:18:50;99923.25;;;8.07;100.00
24154;BME280;12312;53.362;-1.518;2023-02-03T01:21:18;99947.19;;;8.05;100.00
24154;BME280;12312;53.362;-1.518;2023-02-03T01:23:44;99941.72;;;8.08;100.00
24154;BME280;12312;53.362;-1.518;2023-02-03T01:26:12;99940.00;;;8.07;100.00
24154;BME280;12312;53.362;-1.518;2023-02-03T01:28:38;99928.22;;;8.13;100.00
24154;BME280;12312;53.362;-1.518;2023-02-03T01:31:13;99923.03;;;7.94;100.00
24154;BME280;12312;53.362;-1.518;2023-02-03T01:33:39;99924.81;;;7.94;100.00
24154;BME280;12312;53.362;-1.518;2023-02-03T01:36:09;99921.84;;;8.00;100.00
24154;BME280;12312;53.362;-1.518;2023-02-03T01:38:36;99928.19;;;7.97;100.00
24154;BME280;12312;53.362;-1.518;2023-02-03T01:41:02;99938.78;;;7.97;100.00
24154;BME280;12312;53.362;-1.518;2023-02-03T01:43:33;99933.31;;;8.00;100.00
24154;BME280;12312;53.362;-1.518;2023-02-03T01:46:04;99945.78;;;7.98;100.00
24154;BME280;12312;53.362;-1.518;2023-02-03T01:48:32;99935.34;;;7.95;100.00
24154;BME280;12312;53.362;-1.518;2023-02-03T01:51:03;99943.06;;;8.00;100.00
24154;BME280;12312;53.362;-1.518;2023-02-03T01:53:30;99937.03;;;7.96;100.00
24154;BME280;12312;53.362;-1.518;2023-02-03T01:55:57;99966.81;;;7.84;100.00
24154;BME280;12312;53.362;-1.518;2023-02-03T01:58:28;99940.63;;;7.95;100.00
24154;BME280;12312;53.362;-1.518;2023-02-03T02:00:54;99954.69;;;7.97;100.00
24154;BME280;12312;53.362;-1.518;2023-02-03T02:03:43;99958.53;;;7.90;100.00
24154;BME280;12312;53.362;-1.518;2023-02-03T02:06:12;99957.72;;;7.90;100.00
24154;BME280;12312;53.362;-1.518;2023-02-03T02:08:39;99970.50;;;7.99;100.00
24154;BME280;12312;53.362;-1.518;2023-02-03T02:11:06;99958.41;;;7.93;100.00
24154;BME280;12312;53.362;-1.518;2023-02-03T02:13:33;99956.38;;;7.98;100.00
24154;BME280;12312;53.362;-1.518;2023-02-03T02:16:15;99942.34;;;7.96;100.00
24154;BME280;12312;53.362;-1.518;2023-02-03T02:41:34;99957.56;;;7.93;100.00
24154;BME280;12312;53.362;-1.518;2023-02-03T02:44:10;99943.81;;;7.85;100.00
24154;BME280;12312;53.362;-1.518;2023-02-03T02:46:56;99932.03;;;7.90;100.00
24154;BME280;12312;53.362;-1.518;2023-02-03T02:49:35;99910.84;;;7.90;100.00
24154;BME280;12312;53.362;-1.518;2023-02-03T02:52:04;99887.31;;;8.01;100.00
24154;BME280;12312;53.362;-1.518;2023-02-03T02:54:33;99899.31;;;8.08;100.00
24154;BME280;12312;53.362;-1.518;2023-02-03T02:57:02;99904.28;;;8.14;100.00
24154;BME280;12312;53.362;-1.518;2023-02-03T02:59:28;99896.72;;;8.07;100.00
24154;BME280;12312;53.362;-1.518;2023-02-03T03:01:54;99899.47;;;8.05;100.00
24154;BME280;12312;53.362;-1.518;2023-02-03T03:04:23;99896.06;;;8.03;100.00
24154;BME280;12312;53.362;-1.518;2023-02-03T03:07:03;99897.44;;;8.10;100.00
24154;BME280;12312;53.362;-1.518;2023-02-03T03:09:35;99908.19;;;8.07;100.00
24154;BME280;12312;53.362;-1.518;2023-02-03T03:12:36;99888.22;;;8.17;100.00
24154;BME280;12312;53.362;-1.518;2023-02-03T03:15:08;99901.19;;;8.06;100.00
24154;BME280;12312;53.362;-1.518;2023-02-03T03:17:46;99905.25;;;8.13;100.00
24154;BME280;12312;53.362;-1.518;2023-02-03T03:20:25;99932.13;;;8.06;100.00
24154;BME280;12312;53.362;-1.518;2023-02-03T03:23:06;99933.16;;;8.03;100.00
24154;BME280;12312;53.362;-1.518;2023-02-03T03:25:57;99941.13;;;8.03;100.00
24154;BME280;12312;53.362;-1.518;2023-02-03T03:28:31;99935.91;;;8.02;100.00
24154;BME280;12312;53.362;-1.518;2023-02-03T03:30:59;99945.00;;;7.96;100.00
24154;BME280;12312;53.362;-1.518;2023-02-03T03:33:24;99955.66;;;7.95;100.00
24154;BME280;12312;53.362;-1.518;2023-02-03T03:36:02;99959.81;;;8.00;100.00
24154;BME280;12312;53.362;-1.518;2023-02-03T03:38:38;99973.84;;;8.02;100.00
24154;BME280;12312;53.362;-1.518;2023-02-03T03:41:15;99981.09;;;7.99;100.00
24154;BME280;12312;53.362;-1.518;2023-02-03T03:43:44;99960.44;;;8.05;100.00
24154;BME280;12312;53.362;-1.518;2023-02-03T03:46:12;99978.84;;;7.91;100.00
24154;BME280;12312;53.362;-1.518;2023-02-03T03:49:04;99974.00;;;7.99;100.00
24154;BME280;12312;53.362;-1.518;2023-02-03T03:52:04;99968.53;;;7.85;100.00
24154;BME280;12312;53.362;-1.518;2023-02-03T03:54:31;99972.97;;;7.85;100.00
24154;BME280;12312;53.362;-1.518;2023-02-03T03:57:08;99978.34;;;7.83;100.00
24154;BME280;12312;53.362;-1.518;2023-02-03T03:59:41;99973.03;;;7.83;100.00
24154;BME280;12312;53.362;-1.518;2023-02-03T04:02:09;99985.69;;;7.95;100.00
24154;BME280;12312;53.362;-1.518;2023-02-03T04:04:38;99979.91;;;7.87;100.00
24154;BME280;12312;53.362;-1.518;2023-02-03T04:07:04;99989.66;;;7.87;100.00
24154;BME280;12312;53.362;-1.518;2023-02-03T04:09:29;99989.66;;;7.87;100.00
24154;BME280;12312;53.362;-1.518;2023-02-03T04:11:55;100011.69;;;7.87;100.00
24154;BME280;12312;53.362;-1.518;2023-02-03T04:14:32;100017.88;;;7.88;100.00
24154;BME280;12312;53.362;-1.518;2023-02-03T04:16:58;100022.59;;;7.81;100.00
24154;BME280;12312;53.362;-1.518;2023-02-03T04:19:24;100017.28;;;7.81;100.00
24154;BME280;12312;53.362;-1.518;2023-02-03T04:21:50;100025.88;;;7.86;100.00
24154;BME280;12312;53.362;-1.518;2023-02-03T04:24:15;100024.47;;;7.79;100.00
24154;BME280;12312;53.362;-1.518;2023-02-03T04:26:41;100028.47;;;7.88;100.00
24154;BME280;12312;53.362;-1.518;2023-02-03T04:29:06;100040.09;;;7.85;100.00
24154;BME280;12312;53.362;-1.518;2023-02-03T04:31:32;100037.44;;;7.85;100.00
24154;BME280;12312;53.362;-1.518;2023-02-03T04:33:57;100051.06;;;7.95;100.00
24154;BME280;12312;53.362;-1.518;2023-02-03T04:36:23;100055.84;;;7.88;100.00
24154;BME280;12312;53.362;-1.518;2023-02-03T04:38:48;100050.38;;;7.91;100.00
24154;BME280;12312;53.362;-1.518;2023-02-03T04:41:14;100061.28;;;7.85;100.00
24154;BME280;12312;53.362;-1.518;2023-02-03T04:43:40;100070.41;;;7.97;100.00
24154;BME280;12312;53.362;-1.518;2023-02-03T04:46:05;100079.75;;;7.87;100.00
24154;BME280;12312;53.362;-1.518;2023-02-03T04:48:31;100072.66;;;7.87;100.00
24154;BME280;12312;53.362;-1.518;2023-02-03T04:51:04;100084.91;;;7.90;100.00
24154;BME280;12312;53.362;-1.518;2023-02-03T04:53:30;100096.06;;;7.96;100.00
24154;BME280;12312;53.362;-1.518;2023-02-03T04:55:56;100093.41;;;7.96;100.00
24154;BME280;12312;53.362;-1.518;2023-02-03T04:58:22;100067.41;;;8.04;100.00
24154;BME280;12312;53.362;-1.518;2023-02-03T05:00:48;100078.44;;;7.95;100.00
24154;BME280;12312;53.362;-1.518;2023-02-03T05:03:13;100092.41;;;7.99;100.00
24154;BME280;12312;53.362;-1.518;2023-02-03T05:05:39;100090.13;;;7.91;100.00
24154;BME280;12312;53.362;-1.518;2023-02-03T05:08:04;100089.91;;;7.96;100.00
24154;BME280;12312;53.362;-1.518;2023-02-03T05:10:30;100091.03;;;7.90;100.00
24154;BME280;12312;53.362;-1.518;2023-02-03T05:12:56;100100.88;;;7.88;100.00
24154;BME280;12312;53.362;-1.518;2023-02-03T05:15:21;100099.66;;;7.95;100.00
24154;BME280;12312;53.362;-1.518;2023-02-03T05:17:47;100112.09;;;7.93;100.00
24154;BME280;12312;53.362;-1.518;2023-02-03T05:20:12;100127.09;;;7.94;100.00
24154;BME280;12312;53.362;-1.518;2023-02-03T05:22:38;100122.41;;;7.99;100.00
24154;BME280;12312;53.362;-1.518;2023-02-03T05:25:04;100119.47;;;8.05;100.00
24154;BME280;12312;53.362;-1.518;2023-02-03T05:27:29;100125.41;;;8.10;100.00
24154;BME280;12312;53.362;-1.518;2023-02-03T05:29:55;100122.53;;;8.15;100.00
24154;BME280;12312;53.362;-1.518;2023-02-03T05:32:20;100114.38;;;8.19;100.00
24154;BME280;12312;53.362;-1.518;2023-02-03T05:34:46;100102.91;;;8.37;100.00
24154;BME280;12312;53.362;-1.518;2023-02-03T05:37:11;100100.09;;;8.40;100.00
24154;BME280;12312;53.362;-1.518;2023-02-03T05:39:37;100095.72;;;8.39;100.00
24154;BME280;12312;53.362;-1.518;2023-02-03T05:42:02;100102.28;;;8.32;100.00
24154;BME280;12312;53.362;-1.518;2023-02-03T05:44:28;100094.19;;;8.35;100.00
24154;BME280;12312;53.362;-1.518;2023-02-03T05:46:56;100090.88;;;8.30;100.00
24154;BME280;12312;53.362;-1.518;2023-02-03T05:49:22;100083.72;;;8.32;100.00
24154;BME280;12312;53.362;-1.518;2023-02-03T05:51:49;100089.72;;;8.36;100.00
24154;BME280;12312;53.362;-1.518;2023-02-03T05:54:15;100082.28;;;8.25;100.00
24154;BME280;12312;53.362;-1.518;2023-02-03T05:56:40;100091.03;;;8.27;100.00
24154;BME280;12312;53.362;-1.518;2023-02-03T05:59:06;100087.50;;;8.27;100.00
24154;BME280;12312;53.362;-1.518;2023-02-03T06:01:32;100091.03;;;8.27;100.00
24154;BME280;12312;53.362;-1.518;2023-02-03T06:03:59;100086.28;;;8.34;100.00
24154;BME280;12312;53.362;-1.518;2023-02-03T06:06:25;100083.72;;;8.32;100.00
24154;BME280;12312;53.362;-1.518;2023-02-03T06:08:58;100086.06;;;8.38;100.00
24154;BME280;12312;53.362;-1.518;2023-02-03T06:11:23;100082.28;;;8.25;100.00
24154;BME280;12312;53.362;-1.518;2023-02-03T06:13:49;100083.41;;;8.38;100.00
24154;BME280;12312;53.362;-1.518;2023-02-03T06:16:15;100096.91;;;8.34;100.00
24154;BME280;12312;53.362;-1.518;2023-02-03T06:18:40;100096.50;;;8.24;100.00
24154;BME280;12312;53.362;-1.518;2023-02-03T06:21:06;100095.38;;;8.28;100.00
24154;BME280;12312;53.362;-1.518;2023-02-03T06:23:31;100095.09;;;8.16;100.00
24154;BME280;12312;53.362;-1.518;2023-02-03T06:25:57;100111.06;;;8.14;100.00
24154;BME280;12312;53.362;-1.518;2023-02-03T06:28:25;100108.94;;;8.22;100.00
24154;BME280;12312;53.362;-1.518;2023-02-03T06:30:50;100108.88;;;8.24;100.00
24154;BME280;12312;53.362;-1.518;2023-02-03T06:33:18;100101.09;;;8.19;100.00
24154;BME280;12312;53.362;-1.518;2023-02-03T06:35:44;100106.50;;;8.18;100.00
24154;BME280;12312;53.362;-1.518;2023-02-03T06:38:09;100106.41;;;8.19;100.00
24154;BME280;12312;53.362;-1.518;2023-02-03T06:40:35;100109.94;;;8.20;100.00
24154;BME280;12312;53.362;-1.518;2023-02-03T06:43:01;100111.78;;;8.18;100.00
24154;BME280;12312;53.362;-1.518;2023-02-03T06:45:26;100128.41;;;8.21;100.00
24154;BME280;12312;53.362;-1.518;2023-02-03T06:47:52;100126.81;;;8.17;100.00
24154;BME280;12312;53.362;-1.518;2023-02-03T06:50:17;100124.84;;;8.22;100.00
24154;BME280;12312;53.362;-1.518;2023-02-03T06:52:43;100131.75;;;8.26;100.00
24154;BME280;12312;53.362;-1.518;2023-02-03T06:55:09;100122.06;;;8.25;100.00
24154;BME280;12312;53.362;-1.518;2023-02-03T06:57:35;100126.81;;;8.17;100.00
24154;BME280;12312;53.362;-1.518;2023-02-03T07:00:07;100125.84;;;8.20;100.00
24154;BME280;12312;53.362;-1.518;2023-02-03T07:02:33;100123.13;;;8.21;100.00
24154;BME280;12312;53.362;-1.518;2023-02-03T07:04:58;100115.38;;;8.17;100.00
24154;BME280;12312;53.362;-1.518;2023-02-03T07:07:24;100104.78;;;8.17;100.00
24154;BME280;12312;53.362;-1.518;2023-02-03T07:09:49;100117.81;;;8.21;100.00
24154;BME280;12312;53.362;-1.518;2023-02-03T07:12:15;100125.13;;;8.16;100.00
24154;BME280;12312;53.362;-1.518;2023-02-03T07:14:40;100118.13;;;8.15;100.00
24154;BME280;12312;53.362;-1.518;2023-02-03T07:17:06;100123.25;;;8.18;100.00
24154;BME280;12312;53.362;-1.518;2023-02-03T07:19:31;100130.00;;;8.25;100.00
24154;BME280;12312;53.362;-1.518;2023-02-03T07:21:57;100123.50;;;8.14;100.00
24154;BME280;12312;53.362;-1.518;2023-02-03T07:24:22;100120.53;;;8.20;100.00
24154;BME280;12312;53.362;-1.518;2023-02-03T07:26:47;100132.84;;;8.21;100.00
24154;BME280;12312;53.362;-1.518;2023-02-03T07:29:13;100125.66;;;8.24;100.00
24154;BME280;12312;53.362;-1.518;2023-02-03T07:31:38;100121.28;;;8.23;100.00
24154;BME280;12312;53.362;-1.518;2023-02-03T07:34:04;100131.75;;;8.26;100.00
24154;BME280;12312;53.362;-1.518;2023-02-03T07:36:31;100109.59;;;8.27;100.00
24154;BME280;12312;53.362;-1.518;2023-02-03T07:38:57;100087.66;;;8.24;100.00
24154;BME280;12312;53.362;-1.518;2023-02-03T07:41:23;100105.09;;;8.29;100.00
24154;BME280;12312;53.362;-1.518;2023-02-03T07:43:48;100102.59;;;8.26;100.00
24154;BME280;12312;53.362;-1.518;2023-02-03T07:46:14;100108.81;;;8.25;100.00
24154;BME280;12312;53.362;-1.518;2023-02-03T07:48:39;100117.41;;;8.30;100.00
24154;BME280;12312;53.362;-1.518;2023-02-03T07:51:05;100123.66;;;8.29;100.00
24154;BME280;12312;53.362;-1.518;2023-02-03T07:53:30;100148.72;;;8.22;100.00
24154;BME280;12312;53.362;-1.518;2023-02-03T07:56:03;100151.38;;;8.22;100.00
24154;BME280;12312;53.362;-1.518;2023-02-03T07:58:30;100182.91;;;8.28;100.00
24154;BME280;12312;53.362;-1.518;2023-02-03T08:00:56;100191.25;;;8.19;100.00
24154;BME280;12312;53.362;-1.518;2023-02-03T08:03:22;100207.69;;;8.27;100.00
24154;BME280;12312;53.362;-1.518;2023-02-03T08:05:48;100215.91;;;8.21;100.00
24154;BME280;12312;53.362;-1.518;2023-02-03T08:08:14;100240.84;;;8.17;100.00
24154;BME280;12312;53.362;-1.518;2023-02-03T08:10:39;100251.25;;;8.22;100.00
24154;BME280;12312;53.362;-1.518;2023-02-03T08:13:05;100238.66;;;8.27;100.00
24154;BME280;12312;53.362;-1.518;2023-02-03T08:15:30;100256.44;;;8.25;100.00
24154;BME280;12312;53.362;-1.518;2023-02-03T08:17:56;100256.75;;;8.17;100.00
24154;BME280;12312;53.362;-1.518;2023-02-03T08:20:21;100274.94;;;8.26;100.00
24154;BME280;12312;53.362;-1.518;2023-02-03T08:22:47;100271.56;;;8.23;100.00
24154;BME280;12312;53.362;-1.518;2023-02-03T08:25:12;100282.19;;;8.21;100.00
24154;BME280;12312;53.362;-1.518;2023-02-03T08:27:38;100284.75;;;8.24;100.00
24154;BME280;12312;53.362;-1.518;2023-02-03T08:30:06;100289.09;;;8.25;100.00
24154;BME280;12312;53.362;-1.518;2023-02-03T08:32:33;100294.41;;;8.25;100.00
24154;BME280;12312;53.362;-1.518;2023-02-03T08:34:58;100295.88;;;8.32;100.00
24154;BME280;12312;53.362;-1.518;2023-02-03T08:37:24;100302.88;;;8.33;100.00
24154;BME280;12312;53.362;-1.518;2023-02-03T08:39:50;100311.50;;;8.38;100.00
24154;BME280;12312;53.362;-1.518;2023-02-03T08:42:16;100313.34;;;8.36;100.00
24154;BME280;12312;53.362;-1.518;2023-02-03T08:44:41;100311.66;;;8.35;100.00
24154;BME280;12312;53.362;-1.518;2023-02-03T08:47:08;100311.50;;;8.38;100.00
24154;BME280;12312;53.362;-1.518;2023-02-03T08:49:35;100315.88;;;8.39;100.00
24154;BME280;12312;53.362;-1.518;2023-02-03T08:52:04;100326.53;;;8.38;100.00
24154;BME280;12312;53.362;-1.518;2023-02-03T08:54:31;100344.03;;;8.42;100.00
24154;BME280;12312;53.362;-1.518;2023-02-03T08:56:57;100336.00;;;8.43;100.00
24154;BME280;12312;53.362;-1.518;2023-02-03T08:59:23;100347.97;;;8.33;100.00
24154;BME280;12312;53.362;-1.518;2023-02-03T09:01:48;100353.81;;;8.41;100.00
24154;BME280;12312;53.362;-1.518;2023-02-03T09:04:16;100364.47;;;8.40;100.00
24154;BME280;12312;53.362;-1.518;2023-02-03T09:06:44;100384.97;;;8.36;100.00
24154;BME280;12312;53.362;-1.518;2023-02-03T09:09:12;100374.44;;;8.35;100.00
24154;BME280;12312;53.362;-1.518;2023-02-03T09:11:39;100387.34;;;8.42;100.00
24154;BME280;12312;53.362;-1.518;2023-02-03T09:14:05;100378.00;;;8.34;100.00
24154;BME280;12312;53.362;-1.518;2023-02-03T09:16:30;100381.56;;;8.33;100.00
24154;BME280;12312;53.362;-1.518;2023-02-03T09:18:56;100385.09;;;8.33;100.00
24154;BME280;12312;53.362;-1.518;2023-02-03T09:21:21;100393.19;;;8.30;100.00
24154;BME280;12312;53.362;-1.518;2023-02-03T09:23:47;100394.50;;;8.40;100.00
24154;BME280;12312;53.362;-1.518;2023-02-03T09:26:14;100394.78;;;8.34;100.00
24154;BME280;12312;53.362;-1.518;2023-02-03T09:28:40;100399.09;;;8.37;100.00
24154;BME280;12312;53.362;-1.518;2023-02-03T09:31:10;100404.13;;;8.43;100.00
24154;BME280;12312;53.362;-1.518;2023-02-03T09:33:36;100406.72;;;8.44;100.00
24154;BME280;12312;53.362;-1.518;2023-02-03T09:36:03;100412.84;;;8.45;100.00
24154;BME280;12312;53.362;-1.518;2023-02-03T09:38:30;100412.78;;;8.46;100.00
24154;BME280;12312;53.362;-1.518;2023-02-03T09:48:52;100433.81;;;8.51;100.00
24154;BME280;12312;53.362;-1.518;2023-02-03T09:51:22;100441.81;;;8.49;100.00
24154;BME280;12312;53.362;-1.518;2023-02-03T09:53:56;100450.44;;;8.54;100.00
24154;BME280;12312;53.362;-1.518;2023-02-03T09:56:28;100452.44;;;8.49;100.00
24154;BME280;12312;53.362;-1.518;2023-02-03T09:58:54;100454.97;;;8.52;100.00
24154;BME280;12312;53.362;-1.518;2023-02-03T10:01:21;100462.06;;;8.52;100.00
24154;BME280;12312;53.362;-1.518;2023-02-03T10:04:37;100464.66;;;8.53;100.00
24154;BME280;12312;53.362;-1.518;2023-02-03T10:10:29;100478.16;;;8.67;100.00
24154;BME280;12312;53.362;-1.518;2023-02-03T10:15:40;100491.06;;;8.56;100.00
24154;BME280;12312;53.362;-1.518;2023-02-03T10:18:12;100483.81;;;8.60;100.00
24154;BME280;12312;53.362;-1.518;2023-02-03T10:20:44;100481.16;;;8.60;100.00
24154;BME280;12312;53.362;-1.518;2023-02-03T10:23:16;100476.72;;;8.60;100.00
24154;BME280;12312;53.362;-1.518;2023-02-03T10:25:53;100482.03;;;8.60;100.00
24154;BME280;12312;53.362;-1.518;2023-02-03T10:28:22;100482.63;;;8.67;100.00
24154;BME280;12312;53.362;-1.518;2023-02-03T10:30:55;100487.66;;;8.73;100.00
24154;BME280;12312;53.362;-1.518;2023-02-03T10:33:25;100491.53;;;8.84;100.00
24154;BME280;12312;53.362;-1.518;2023-02-03T10:36:14;100501.16;;;8.87;100.00
24154;BME280;12312;53.362;-1.518;2023-02-03T10:41:29;100499.88;;;8.95;100.00
24154;BME280;12312;53.362;-1.518;2023-02-03T10:43:55;100512.94;;;9.00;100.00
24154;BME280;12312;53.362;-1.518;2023-02-03T10:46:28;100520.59;;;8.87;100.00
24154;BME280;12312;53.362;-1.518;2023-02-03T10:48:54;100521.19;;;8.94;100.00
24154;BME280;12312;53.362;-1.518;2023-02-03T10:53:53;100523.16;;;9.09;100.00
24154;BME280;12312;53.362;-1.518;2023-02-03T10:56:25;100525.25;;;9.21;100.00
24154;BME280;12312;53.362;-1.518;2023-02-03T10:58:55;100511.09;;;9.21;100.00
24154;BME280;12312;53.362;-1.518;2023-02-03T11:01:40;100524.03;;;9.28;100.00
24154;BME280;12312;53.362;-1.518;2023-02-03T11:04:22;100512.25;;;9.34;100.00
24154;BME280;12312;53.362;-1.518;2023-02-03T11:06:56;100519.28;;;9.53;100.00
24154;BME280;12312;53.362;-1.518;2023-02-03T11:09:39;100512.41;;;9.31;100.00
24154;BME280;12312;53.362;-1.518;2023-02-03T11:14:42;100512.56;;;9.28;100.00
24154;BME280;12312;53.362;-1.518;2023-02-03T11:17:19;100514.84;;;9.54;100.00
24154;BME280;12312;53.362;-1.518;2023-02-03T11:19:48;100523.47;;;9.40;100.00
24154;BME280;12312;53.362;-1.518;2023-02-03T11:22:36;100527.19;;;9.36;100.00
24154;BME280;12312;53.362;-1.518;2023-02-03T11:25:14;100526.34;;;9.36;100.00
24154;BME280;12312;53.362;-1.518;2023-02-03T11:27:41;100532.94;;;9.46;100.00
24154;BME280;12312;53.362;-1.518;2023-02-03T11:30:13;100549.59;;;9.31;100.00
24154;BME280;12312;53.362;-1.518;2023-02-03T11:32:42;100543.56;;;9.46;100.00
24154;BME280;12312;53.362;-1.518;2023-02-03T11:37:48;100551.91;;;9.57;100.00
24154;BME280;12312;53.362;-1.518;2023-02-03T11:42:42;100534.22;;;9.56;100.00
24154;BME280;12312;53.362;-1.518;2023-02-03T12:01:00;100522.69;;;9.92;100.00
24154;BME280;12312;53.362;-1.518;2023-02-03T12:06:00;100527.38;;;10.23;100.00
24154;BME280;12312;53.362;-1.518;2023-02-03T12:08:51;100544.94;;;10.27;100.00
24154;BME280;12312;53.362;-1.518;2023-02-03T12:14:02;100528.03;;;10.45;100.00
24154;BME280;12312;53.362;-1.518;2023-02-03T12:19:43;100538.53;;;10.48;100.00
24154;BME280;12312;53.362;-1.518;2023-02-03T12:22:20;100532.41;;;10.29;100.00
24154;BME280;12312;53.362;-1.518;2023-02-03T12:30:31;100539.47;;;10.30;100.00
24154;BME280;12312;53.362;-1.518;2023-02-03T12:33:03;100530.34;;;10.68;100.00
24154;BME280;12312;53.362;-1.518;2023-02-03T12:35:38;100535.00;;;10.47;100.00
24154;BME280;12312;53.362;-1.518;2023-02-03T12:38:18;100543.03;;;10.29;100.00
24154;BME280;12312;53.362;-1.518;2023-02-03T12:40:54;100545.50;;;10.15;100.00
24154;BME280;12312;53.362;-1.518;2023-02-03T12:43:47;100552.28;;;10.22;100.00
24154;BME280;12312;53.362;-1.518;2023-02-03T12:46:29;100563.22;;;10.16;100.00
24154;BME280;12312;53.362;-1.518;2023-02-03T12:49:09;100567.06;;;10.27;100.00
24154;BME280;12312;53.362;-1.518;2023-02-03T12:51:42;100567.63;;;10.34;100.00
24154;BME280;12312;53.362;-1.518;2023-02-03T12:56:49;100580.13;;;9.96;100.00
24154;BME280;12312;53.362;-1.518;2023-02-03T12:59:22;100575.50;;;10.00;100.00
24154;BME280;12312;53.362;-1.518;2023-02-03T13:02:02;100578.81;;;9.68;100.00
24154;BME280;12312;53.362;-1.518;2023-02-03T13:04:50;100584.56;;;9.96;100.00
24154;BME280;12312;53.362;-1.518;2023-02-03T13:07:26;100583.84;;;9.74;100.00
24154;BME280;12312;53.362;-1.518;2023-02-03T13:10:03;100582.50;;;9.84;100.00
24154;BME280;12312;53.362;-1.518;2023-02-03T13:12:34;100583.75;;;9.94;100.00
24154;BME280;12312;53.362;-1.518;2023-02-03T13:20:53;100584.22;;;9.85;100.00
24154;BME280;12312;53.362;-1.518;2023-02-03T13:23:18;100589.81;;;10.16;100.00
24154;BME280;12312;53.362;-1.518;2023-02-03T13:26:31;100585.91;;;10.04;100.00
24154;BME280;12312;53.362;-1.518;2023-02-03T13:43:12;100572.22;;;9.95;100.00
24154;BME280;12312;53.362;-1.518;2023-02-03T13:45:46;100576.31;;;9.83;100.00
24154;BME280;12312;53.362;-1.518;2023-02-03T13:48:15;100580.34;;;9.92;100.00
24154;BME280;12312;53.362;-1.518;2023-02-03T13:50:42;100571.72;;;9.87;100.00
24154;BME280;12312;53.362;-1.518;2023-02-03T13:55:51;100579.25;;;9.96;100.00
24154;BME280;12312;53.362;-1.518;2023-02-03T13:58:23;100593.34;;;9.79;100.00
24154;BME280;12312;53.362;-1.518;2023-02-03T14:05:50;100581.00;;;9.78;100.00
24154;BME280;12312;53.362;-1.518;2023-02-03T14:16:42;100578.06;;;9.66;100.00
24154;BME280;12312;53.362;-1.518;2023-02-03T14:19:10;100572.16;;;9.59;100.00
24154;BME280;12312;53.362;-1.518;2023-02-03T14:21:44;100572.31;;;9.75;100.00
24154;BME280;12312;53.362;-1.518;2023-02-03T14:24:11;100573.03;;;9.60;100.00
24154;BME280;12312;53.362;-1.518;2023-02-03T14:26:41;100583.22;;;9.50;100.00
24154;BME280;12312;53.362;-1.518;2023-02-03T14:29:09;100587.66;;;9.50;100.00
24154;BME280;12312;53.362;-1.518;2023-02-03T14:32:08;100586.38;;;9.40;100.00
24154;BME280;12312;53.362;-1.518;2023-02-03T14:34:44;100592.91;;;9.51;100.00
24154;BME280;12312;53.362;-1.518;2023-02-03T14:37:28;100582.72;;;9.61;100.00
24154;BME280;12312;53.362;-1.518;2023-02-03T14:45:32;100594.84;;;9.85;100.00
24154;BME280;12312;53.362;-1.518;2023-02-03T14:51:50;100602.25;;;9.60;100.00
24154;BME280;12312;53.362;-1.518;2023-02-03T15:00:42;100594.78;;;9.49;100.00
24154;BME280;12312;53.362;-1.518;2023-02-03T15:08:25;100604.59;;;9.47;100.00
24154;BME280;12312;53.362;-1.518;2023-02-03T15:10:49;100607.75;;;9.37;100.00
24154;BME280;12312;53.362;-1.518;2023-02-03T15:13:30;100608.78;;;9.34;100.00